sensor_id;sensor_type;location;lat;lon;timestamp;temperature;humidity
24682;DHT22;12802;53.390;-2.328;2023-07-13T00:01:28;14.80;99.90
24682;DHT22;12802;53.390;-2.328;2023-07-13T00:03:56;14.70;99.90
24682;DHT22;12802;53.390;-2.328;2023-07-13T00:06:22;14.70;99.90
24682;DHT22;12802;53.390;-2.328;2023-07-13T00:08:47;14.60;99.90
24682;DHT22;12802;53.390;-2.328;2023-07-13T00:11:15;14.70;99.90
24682;DHT22;12802;53.390;-2.328;2023-07-13T00:13:41;14.60;99.90
24682;DHT22;12802;53.390;-2.328;2023-07-13T00:16:09;14.60;99.90
24682;DHT22;12802;53.390;-2.328;2023-07-13T00:18:35;14.60;99.90
24682;DHT22;12802;53.390;-2.328;2023-07-13T00:21:01;14.50;99.90
24682;DHT22;12802;53.390;-2.328;2023-07-13T00:23:32;14.50;99.90
24682;DHT22;12802;53.390;-2.328;2023-07-13T00:26:00;14.50;99.90
24682;DHT22;12802;53.390;-2.328;2023-07-13T00:28:26;14.50;99.90
24682;DHT22;12802;53.390;-2.328;2023-07-13T00:30:51;14.50;99.90
24682;DHT22;12802;53.390;-2.328;2023-07-13T00:33:17;14.50;99.90
24682;DHT22;12802;53.390;-2.328;2023-07-13T00:35:43;14.50;99.90
24682;DHT22;12802;53.390;-2.328;2023-07-13T00:38:10;14.40;99.90
24682;DHT22;12802;53.390;-2.328;2023-07-13T00:40:35;14.40;99.90
24682;DHT22;12802;53.390;-2.328;2023-07-13T00:43:02;14.40;99.90
24682;DHT22;12802;53.390;-2.328;2023-07-13T00:46:15;14.40;99.90
24682;DHT22;12802;53.390;-2.328;2023-07-13T00:48:20;14.50;99.90
24682;DHT22;12802;53.390;-2.328;2023-07-13T00:50:50;14.50;99.90
24682;DHT22;12802;53.390;-2.328;2023-07-13T00:53:19;14.50;99.90
24682;DHT22;12802;53.390;-2.328;2023-07-13T00:55:46;14.50;99.90
24682;DHT22;12802;53.390;-2.328;2023-07-13T00:58:15;14.50;99.90
24682;DHT22;12802;53.390;-2.328;2023-07-13T01:00:41;14.50;99.90
24682;DHT22;12802;53.390;-2.328;2023-07-13T01:03:07;14.50;99.90
24682;DHT22;12802;53.390;-2.328;2023-07-13T01:05:35;14.50;99.90
24682;DHT22;12802;53.390;-2.328;2023-07-13T01:08:01;14.60;99.90
24682;DHT22;12802;53.390;-2.328;2023-07-13T01:10:27;14.50;99.90
24682;DHT22;12802;53.390;-2.328;2023-07-13T01:12:54;14.50;99.90
24682;DHT22;12802;53.390;-2.328;2023-07-13T01:15:35;14.50;99.90
24682;DHT22;12802;53.390;-2.328;2023-07-13T01:18:03;14.50;99.90
24682;DHT22;12802;53.390;-2.328;2023-07-13T01:20:29;14.50;99.90
24682;DHT22;12802;53.390;-2.328;2023-07-13T01:22:55;14.50;99.90
24682;DHT22;12802;53.390;-2.328;2023-07-13T01:25:20;14.50;99.90
24682;DHT22;12802;53.390;-2.328;2023-07-13T01:27:46;14.50;99.90
24682;DHT22;12802;53.390;-2.328;2023-07-13T01:30:12;14.50;99.90
24682;DHT22;12802;53.390;-2.328;2023-07-13T01:32:38;14.40;99.90
24682;DHT22;12802;53.390;-2.328;2023-07-13T01:35:07;14.40;99.90
24682;DHT22;12802;53.390;-2.328;2023-07-13T01:37:33;14.40;99.90
24682;DHT22;12802;53.390;-2.328;2023-07-13T01:40:03;14.40;99.90
24682;DHT22;12802;53.390;-2.328;2023-07-13T01:42:30;14.40;99.90
24682;DHT22;12802;53.390;-2.328;2023-07-13T01:44:56;14.40;99.90
24682;DHT22;12802;53.390;-2.328;2023-07-13T01:47:22;14.30;99.90
24682;DHT22;12802;53.390;-2.328;2023-07-13T01:49:49;14.30;99.90
24682;DHT22;12802;53.390;-2.328;2023-07-13T01:52:17;14.30;99.90
24682;DHT22;12802;53.390;-2.328;2023-07-13T01:54:43;14.30;99.90
24682;DHT22;12802;53.390;-2.328;2023-07-13T01:57:09;14.30;99.90
24682;DHT22;12802;53.390;-2.328;2023-07-13T01:59:34;14.30;99.90
24682;DHT22;12802;53.390;-2.328;2023-07-13T02:02:00;14.30;99.90
24682;DHT22;12802;53.390;-2.328;2023-07-13T02:04:26;14.30;99.90
24682;DHT22;12802;53.390;-2.328;2023-07-13T02:06:52;14.30;99.90
24682;DHT22;12802;53.390;-2.328;2023-07-13T02:09:18;14.30;99.90
24682;DHT22;12802;53.390;-2.328;2023-07-13T02:11:44;14.30;99.90
24682;DHT22;12802;53.390;-2.328;2023-07-13T02:14:09;14.30;99.90
24682;DHT22;12802;53.390;-2.328;2023-07-13T02:16:35;14.30;99.90
24682;DHT22;12802;53.390;-2.328;2023-07-13T02:19:01;14.20;99.90
24682;DHT22;12802;53.390;-2.328;2023-07-13T02:21:27;14.10;99.90
24682;DHT22;12802;53.390;-2.328;2023-07-13T02:23:53;14.10;99.90
24682;DHT22;12802;53.390;-2.328;2023-07-13T02:26:20;14.10;99.90
24682;DHT22;12802;53.390;-2.328;2023-07-13T02:28:47;13.90;99.90
24682;DHT22;12802;53.390;-2.328;2023-07-13T02:31:15;13.90;99.90
24682;DHT22;12802;53.390;-2.328;2023-07-13T02:33:41;13.90;99.90
24682;DHT22;12802;53.390;-2.328;2023-07-13T02:36:07;13.90;99.90
24682;DHT22;12802;53.390;-2.328;2023-07-13T02:38:34;14.00;99.90
24682;DHT22;12802;53.390;-2.328;2023-07-13T02:41:06;14.00;99.90
24682;DHT22;12802;53.390;-2.328;2023-07-13T02:43:32;14.00;99.90
24682;DHT22;12802;53.390;-2.328;2023-07-13T02:45:59;14.10;99.90
24682;DHT22;12802;53.390;-2.328;2023-07-13T02:48:30;14.00;99.90
24682;DHT22;12802;53.390;-2.328;2023-07-13T02:50:57;14.00;99.90
24682;DHT22;12802;53.390;-2.328;2023-07-13T02:53:22;14.00;99.90
24682;DHT22;12802;53.390;-2.328;2023-07-13T02:55:48;14.00;99.90
24682;DHT22;12802;53.390;-2.328;2023-07-13T02:58:14;14.10;99.90
24682;DHT22;12802;53.390;-2.328;2023-07-13T03:00:44;13.90;99.90
24682;DHT22;12802;53.390;-2.328;2023-07-13T03:03:12;13.90;99.90
24682;DHT22;12802;53.390;-2.328;2023-07-13T03:05:42;13.90;99.90
24682;DHT22;12802;53.390;-2.328;2023-07-13T03:08:09;13.80;99.90
24682;DHT22;12802;53.390;-2.328;2023-07-13T03:10:35;13.90;99.90
24682;DHT22;12802;53.390;-2.328;2023-07-13T03:13:02;13.90;99.90
24682;DHT22;12802;53.390;-2.328;2023-07-13T03:15:28;13.90;99.90
24682;DHT22;12802;53.390;-2.328;2023-07-13T03:17:56;13.90;99.90
24682;DHT22;12802;53.390;-2.328;2023-07-13T03:20:22;13.90;99.90
24682;DHT22;12802;53.390;-2.328;2023-07-13T03:22:48;13.90;99.90
24682;DHT22;12802;53.390;-2.328;2023-07-13T03:25:15;13.80;99.90
24682;DHT22;12802;53.390;-2.328;2023-07-13T03:27:42;13.70;99.90
24682;DHT22;12802;53.390;-2.328;2023-07-13T03:30:09;13.60;99.90
24682;DHT22;12802;53.390;-2.328;2023-07-13T03:32:35;13.50;99.90
24682;DHT22;12802;53.390;-2.328;2023-07-13T03:35:01;13.50;99.90
24682;DHT22;12802;53.390;-2.328;2023-07-13T03:37:28;13.50;99.90
24682;DHT22;12802;53.390;-2.328;2023-07-13T03:39:54;13.60;99.90
24682;DHT22;12802;53.390;-2.328;2023-07-13T03:42:20;13.50;99.90
24682;DHT22;12802;53.390;-2.328;2023-07-13T03:44:46;13.40;99.90
24682;DHT22;12802;53.390;-2.328;2023-07-13T03:47:18;13.30;99.90
24682;DHT22;12802;53.390;-2.328;2023-07-13T03:49:44;13.30;99.90
24682;DHT22;12802;53.390;-2.328;2023-07-13T03:52:11;13.40;99.90
24682;DHT22;12802;53.390;-2.328;2023-07-13T03:54:37;13.40;99.90
24682;DHT22;12802;53.390;-2.328;2023-07-13T03:57:03;13.40;99.90
24682;DHT22;12802;53.390;-2.328;2023-07-13T03:59:31;13.40;99.90
24682;DHT22;12802;53.390;-2.328;2023-07-13T04:01:57;13.40;99.90
24682;DHT22;12802;53.390;-2.328;2023-07-13T04:04:23;13.30;99.90
24682;DHT22;12802;53.390;-2.328;2023-07-13T04:06:48;13.30;99.90
24682;DHT22;12802;53.390;-2.328;2023-07-13T04:09:14;13.30;99.90
24682;DHT22;12802;53.390;-2.328;2023-07-13T04:11:40;13.20;99.90
24682;DHT22;12802;53.390;-2.328;2023-07-13T04:14:06;13.10;99.90
24682;DHT22;12802;53.390;-2.328;2023-07-13T04:16:33;13.10;99.90
24682;DHT22;12802;53.390;-2.328;2023-07-13T04:18:59;13.10;99.90
24682;DHT22;12802;53.390;-2.328;2023-07-13T04:21:29;12.90;99.90
24682;DHT22;12802;53.390;-2.328;2023-07-13T04:23:55;13.00;99.90
24682;DHT22;12802;53.390;-2.328;2023-07-13T04:26:22;12.90;99.90
24682;DHT22;12802;53.390;-2.328;2023-07-13T04:28:49;12.90;99.90
24682;DHT22;12802;53.390;-2.328;2023-07-13T04:31:14;12.90;99.90
24682;DHT22;12802;53.390;-2.328;2023-07-13T04:33:40;12.90;99.90
24682;DHT22;12802;53.390;-2.328;2023-07-13T04:36:06;12.90;99.90
24682;DHT22;12802;53.390;-2.328;2023-07-13T04:38:35;12.90;99.90
24682;DHT22;12802;53.390;-2.328;2023-07-13T04:41:04;13.00;99.90
24682;DHT22;12802;53.390;-2.328;2023-07-13T04:43:31;12.90;99.90
24682;DHT22;12802;53.390;-2.328;2023-07-13T04:45:57;12.90;99.90
24682;DHT22;12802;53.390;-2.328;2023-07-13T04:48:23;12.80;99.90
24682;DHT22;12802;53.390;-2.328;2023-07-13T04:50:57;12.70;99.90
24682;DHT22;12802;53.390;-2.328;2023-07-13T04:53:24;12.70;99.90
24682;DHT22;12802;53.390;-2.328;2023-07-13T04:55:50;12.70;99.90
24682;DHT22;12802;53.390;-2.328;2023-07-13T04:58:16;12.70;99.90
24682;DHT22;12802;53.390;-2.328;2023-07-13T05:00:42;12.80;99.90
24682;DHT22;12802;53.390;-2.328;2023-07-13T05:03:07;12.80;99.90
24682;DHT22;12802;53.390;-2.328;2023-07-13T05:05:33;12.80;99.90
24682;DHT22;12802;53.390;-2.328;2023-07-13T05:07:59;12.90;99.90
24682;DHT22;12802;53.390;-2.328;2023-07-13T05:10:25;12.90;99.90
24682;DHT22;12802;53.390;-2.328;2023-07-13T05:12:51;12.90;99.90
24682;DHT22;12802;53.390;-2.328;2023-07-13T05:15:17;13.00;99.90
24682;DHT22;12802;53.390;-2.328;2023-07-13T05:17:47;13.00;99.90
24682;DHT22;12802;53.390;-2.328;2023-07-13T05:20:13;13.10;99.90
24682;DHT22;12802;53.390;-2.328;2023-07-13T05:22:39;13.00;99.90
24682;DHT22;12802;53.390;-2.328;2023-07-13T05:25:06;13.10;99.90
24682;DHT22;12802;53.390;-2.328;2023-07-13T05:27:32;13.10;99.90
24682;DHT22;12802;53.390;-2.328;2023-07-13T05:29:58;13.20;99.90
24682;DHT22;12802;53.390;-2.328;2023-07-13T05:32:24;13.20;99.90
24682;DHT22;12802;53.390;-2.328;2023-07-13T05:34:50;13.30;99.90
24682;DHT22;12802;53.390;-2.328;2023-07-13T05:37:15;13.30;99.90
24682;DHT22;12802;53.390;-2.328;2023-07-13T05:39:41;13.30;99.90
24682;DHT22;12802;53.390;-2.328;2023-07-13T05:42:07;13.30;99.90
24682;DHT22;12802;53.390;-2.328;2023-07-13T05:44:33;13.30;99.90
24682;DHT22;12802;53.390;-2.328;2023-07-13T05:46:59;13.40;99.90
24682;DHT22;12802;53.390;-2.328;2023-07-13T05:49:24;13.40;99.90
24682;DHT22;12802;53.390;-2.328;2023-07-13T05:51:50;13.40;99.90
24682;DHT22;12802;53.390;-2.328;2023-07-13T05:54:16;13.40;99.90
24682;DHT22;12802;53.390;-2.328;2023-07-13T05:56:42;13.50;99.90
24682;DHT22;12802;53.390;-2.328;2023-07-13T05:59:07;13.50;99.90
24682;DHT22;12802;53.390;-2.328;2023-07-13T06:01:34;13.60;99.90
24682;DHT22;12802;53.390;-2.328;2023-07-13T06:04:01;13.60;99.90
24682;DHT22;12802;53.390;-2.328;2023-07-13T06:06:27;13.70;99.90
24682;DHT22;12802;53.390;-2.328;2023-07-13T06:08:52;13.70;99.90
24682;DHT22;12802;53.390;-2.328;2023-07-13T06:11:22;13.80;99.90
24682;DHT22;12802;53.390;-2.328;2023-07-13T06:13:48;13.90;99.90
24682;DHT22;12802;53.390;-2.328;2023-07-13T06:16:14;13.90;99.90
24682;DHT22;12802;53.390;-2.328;2023-07-13T06:18:40;14.00;99.90
24682;DHT22;12802;53.390;-2.328;2023-07-13T06:21:17;14.00;99.90
24682;DHT22;12802;53.390;-2.328;2023-07-13T06:23:44;14.00;99.90
24682;DHT22;12802;53.390;-2.328;2023-07-13T06:26:11;14.00;99.90
24682;DHT22;12802;53.390;-2.328;2023-07-13T06:28:37;14.10;99.90
24682;DHT22;12802;53.390;-2.328;2023-07-13T06:31:07;14.00;99.90
24682;DHT22;12802;53.390;-2.328;2023-07-13T06:33:33;14.00;99.90
24682;DHT22;12802;53.390;-2.328;2023-07-13T06:35:59;14.10;99.90
24682;DHT22;12802;53.390;-2.328;2023-07-13T06:38:25;14.10;99.90
24682;DHT22;12802;53.390;-2.328;2023-07-13T06:40:51;14.10;99.90
24682;DHT22;12802;53.390;-2.328;2023-07-13T06:43:17;14.10;99.90
24682;DHT22;12802;53.390;-2.328;2023-07-13T06:45:48;14.20;99.90
24682;DHT22;12802;53.390;-2.328;2023-07-13T06:48:15;14.20;99.90
24682;DHT22;12802;53.390;-2.328;2023-07-13T06:50:42;14.20;99.90
24682;DHT22;12802;53.390;-2.328;2023-07-13T06:53:09;14.30;99.90
24682;DHT22;12802;53.390;-2.328;2023-07-13T06:55:35;14.30;99.90
24682;DHT22;12802;53.390;-2.328;2023-07-13T06:58:01;14.30;99.90
24682;DHT22;12802;53.390;-2.328;2023-07-13T07:00:27;14.30;99.90
24682;DHT22;12802;53.390;-2.328;2023-07-13T07:02:52;14.40;99.90
24682;DHT22;12802;53.390;-2.328;2023-07-13T07:05:18;14.40;99.90
24682;DHT22;12802;53.390;-2.328;2023-07-13T07:07:49;14.50;99.90
24682;DHT22;12802;53.390;-2.328;2023-07-13T07:10:15;14.50;99.90
24682;DHT22;12802;53.390;-2.328;2023-07-13T07:12:40;14.60;99.90
24682;DHT22;12802;53.390;-2.328;2023-07-13T07:15:06;14.70;99.90
24682;DHT22;12802;53.390;-2.328;2023-07-13T07:17:32;14.80;99.90
24682;DHT22;12802;53.390;-2.328;2023-07-13T07:19:58;14.90;99.90
24682;DHT22;12802;53.390;-2.328;2023-07-13T07:22:24;14.90;99.90
24682;DHT22;12802;53.390;-2.328;2023-07-13T07:24:53;14.90;99.90
24682;DHT22;12802;53.390;-2.328;2023-07-13T07:27:19;14.90;99.90
24682;DHT22;12802;53.390;-2.328;2023-07-13T07:29:45;14.90;99.90
24682;DHT22;12802;53.390;-2.328;2023-07-13T07:32:11;15.00;99.90
24682;DHT22;12802;53.390;-2.328;2023-07-13T07:34:37;15.10;99.90
24682;DHT22;12802;53.390;-2.328;2023-07-13T07:37:02;15.20;99.90
24682;DHT22;12802;53.390;-2.328;2023-07-13T07:39:29;15.20;99.90
24682;DHT22;12802;53.390;-2.328;2023-07-13T07:41:55;15.30;99.90
24682;DHT22;12802;53.390;-2.328;2023-07-13T07:44:21;15.30;99.90
24682;DHT22;12802;53.390;-2.328;2023-07-13T07:46:47;15.30;99.90
24682;DHT22;12802;53.390;-2.328;2023-07-13T07:49:13;15.30;99.90
24682;DHT22;12802;53.390;-2.328;2023-07-13T07:51:39;15.30;99.90
24682;DHT22;12802;53.390;-2.328;2023-07-13T07:54:05;15.40;99.90
24682;DHT22;12802;53.390;-2.328;2023-07-13T07:56:31;15.30;99.90
24682;DHT22;12802;53.390;-2.328;2023-07-13T07:58:57;15.30;99.90
24682;DHT22;12802;53.390;-2.328;2023-07-13T08:01:24;15.40;99.90
24682;DHT22;12802;53.390;-2.328;2023-07-13T08:03:49;15.40;99.90
24682;DHT22;12802;53.390;-2.328;2023-07-13T08:06:15;15.50;99.90
24682;DHT22;12802;53.390;-2.328;2023-07-13T08:08:41;15.50;99.90
24682;DHT22;12802;53.390;-2.328;2023-07-13T08:11:08;15.60;99.90
24682;DHT22;12802;53.390;-2.328;2023-07-13T08:13:35;15.70;99.90
24682;DHT22;12802;53.390;-2.328;2023-07-13T08:16:01;15.80;99.90
24682;DHT22;12802;53.390;-2.328;2023-07-13T08:18:27;15.80;99.90
24682;DHT22;12802;53.390;-2.328;2023-07-13T08:20:55;15.80;99.90
24682;DHT22;12802;53.390;-2.328;2023-07-13T08:23:25;15.80;99.90
24682;DHT22;12802;53.390;-2.328;2023-07-13T08:25:54;15.90;99.90
24682;DHT22;12802;53.390;-2.328;2023-07-13T08:28:21;15.90;99.90
24682;DHT22;12802;53.390;-2.328;2023-07-13T08:30:48;16.00;99.90
24682;DHT22;12802;53.390;-2.328;2023-07-13T08:33:21;16.00;99.90
24682;DHT22;12802;53.390;-2.328;2023-07-13T08:35:48;16.00;99.90
24682;DHT22;12802;53.390;-2.328;2023-07-13T08:38:15;16.00;99.90
24682;DHT22;12802;53.390;-2.328;2023-07-13T08:40:41;15.90;99.90
24682;DHT22;12802;53.390;-2.328;2023-07-13T08:43:13;16.00;99.90
24682;DHT22;12802;53.390;-2.328;2023-07-13T08:45:47;16.10;99.90
24682;DHT22;12802;53.390;-2.328;2023-07-13T08:48:21;16.20;99.90
24682;DHT22;12802;53.390;-2.328;2023-07-13T08:50:53;16.40;99.90
24682;DHT22;12802;53.390;-2.328;2023-07-13T08:53:21;16.40;99.90
24682;DHT22;12802;53.390;-2.328;2023-07-13T08:55:53;16.60;99.90
24682;DHT22;12802;53.390;-2.328;2023-07-13T08:58:22;16.60;99.90
24682;DHT22;12802;53.390;-2.328;2023-07-13T09:04:18;16.60;99.90
24682;DHT22;12802;53.390;-2.328;2023-07-13T09:14:36;16.80;99.90
24682;DHT22;12802;53.390;-2.328;2023-07-13T09:17:08;16.90;99.90
24682;DHT22;12802;53.390;-2.328;2023-07-13T09:19:36;17.10;99.90
24682;DHT22;12802;53.390;-2.328;2023-07-13T09:22:04;17.20;99.90
24682;DHT22;12802;53.390;-2.328;2023-07-13T09:25:11;17.20;99.90
24682;DHT22;12802;53.390;-2.328;2023-07-13T09:27:43;17.20;99.90
24682;DHT22;12802;53.390;-2.328;2023-07-13T09:32:42;17.10;99.90
24682;DHT22;12802;53.390;-2.328;2023-07-13T09:35:14;17.20;99.90
24682;DHT22;12802;53.390;-2.328;2023-07-13T09:37:43;17.20;99.90
24682;DHT22;12802;53.390;-2.328;2023-07-13T09:40:17;17.20;99.90
24682;DHT22;12802;53.390;-2.328;2023-07-13T09:42:46;17.20;99.90
24682;DHT22;12802;53.390;-2.328;2023-07-13T09:45:17;17.20;99.90
24682;DHT22;12802;53.390;-2.328;2023-07-13T09:47:59;17.30;99.90
24682;DHT22;12802;53.390;-2.328;2023-07-13T09:50:28;17.30;99.90
24682;DHT22;12802;53.390;-2.328;2023-07-13T09:52:54;17.20;99.90
24682;DHT22;12802;53.390;-2.328;2023-07-13T09:55:37;17.20;99.90
24682;DHT22;12802;53.390;-2.328;2023-07-13T09:58:15;17.30;99.90
24682;DHT22;12802;53.390;-2.328;2023-07-13T10:00:42;17.20;99.90
24682;DHT22;12802;53.390;-2.328;2023-07-13T10:03:22;17.40;99.90
24682;DHT22;12802;53.390;-2.328;2023-07-13T10:05:51;17.60;99.90
24682;DHT22;12802;53.390;-2.328;2023-07-13T10:08:26;18.00;99.90
24682;DHT22;12802;53.390;-2.328;2023-07-13T10:11:00;18.00;99.90
24682;DHT22;12802;53.390;-2.328;2023-07-13T10:13:34;18.20;99.90
24682;DHT22;12802;53.390;-2.328;2023-07-13T10:16:06;18.40;99.90
24682;DHT22;12802;53.390;-2.328;2023-07-13T10:18:44;18.50;99.90
24682;DHT22;12802;53.390;-2.328;2023-07-13T10:21:20;18.30;99.90
24682;DHT22;12802;53.390;-2.328;2023-07-13T10:23:50;18.40;99.90
24682;DHT22;12802;53.390;-2.328;2023-07-13T10:26:25;18.50;99.90
24682;DHT22;12802;53.390;-2.328;2023-07-13T10:28:54;18.60;99.90
24682;DHT22;12802;53.390;-2.328;2023-07-13T10:31:22;18.60;99.90
24682;DHT22;12802;53.390;-2.328;2023-07-13T10:33:49;18.70;99.90
24682;DHT22;12802;53.390;-2.328;2023-07-13T10:39:05;19.20;99.90
24682;DHT22;12802;53.390;-2.328;2023-07-13T10:41:36;19.30;99.90
24682;DHT22;12802;53.390;-2.328;2023-07-13T10:44:05;19.50;99.90
24682;DHT22;12802;53.390;-2.328;2023-07-13T10:46:36;19.60;99.90
24682;DHT22;12802;53.390;-2.328;2023-07-13T10:49:05;19.40;99.90
24682;DHT22;12802;53.390;-2.328;2023-07-13T10:51:33;19.20;99.90
24682;DHT22;12802;53.390;-2.328;2023-07-13T10:56:41;19.30;99.90
24682;DHT22;12802;53.390;-2.328;2023-07-13T10:59:16;19.80;99.90
24682;DHT22;12802;53.390;-2.328;2023-07-13T11:02:15;20.10;99.90
24682;DHT22;12802;53.390;-2.328;2023-07-13T11:04:47;19.80;99.90
24682;DHT22;12802;53.390;-2.328;2023-07-13T11:07:28;19.60;99.90
24682;DHT22;12802;53.390;-2.328;2023-07-13T11:09:59;19.50;99.90
24682;DHT22;12802;53.390;-2.328;2023-07-13T11:22:45;20.00;99.90
24682;DHT22;12802;53.390;-2.328;2023-07-13T11:25:31;20.00;99.90
24682;DHT22;12802;53.390;-2.328;2023-07-13T11:30:38;19.90;99.90
24682;DHT22;12802;53.390;-2.328;2023-07-13T11:35:36;19.80;99.90
24682;DHT22;12802;53.390;-2.328;2023-07-13T11:41:21;20.00;99.90
24682;DHT22;12802;53.390;-2.328;2023-07-13T11:43:53;19.70;99.90
24682;DHT22;12802;53.390;-2.328;2023-07-13T11:46:27;19.60;99.90
24682;DHT22;12802;53.390;-2.328;2023-07-13T11:48:53;19.40;99.90
24682;DHT22;12802;53.390;-2.328;2023-07-13T11:53:47;19.30;99.90
24682;DHT22;12802;53.390;-2.328;2023-07-13T11:56:14;19.40;99.90
24682;DHT22;12802;53.390;-2.328;2023-07-13T11:58:40;19.30;99.90
24682;DHT22;12802;53.390;-2.328;2023-07-13T12:01:17;19.20;99.90
24682;DHT22;12802;53.390;-2.328;2023-07-13T12:03:44;19.30;99.90
24682;DHT22;12802;53.390;-2.328;2023-07-13T12:06:35;19.40;99.90
24682;DHT22;12802;53.390;-2.328;2023-07-13T12:09:14;19.40;99.90
24682;DHT22;12802;53.390;-2.328;2023-07-13T12:11:43;19.40;99.90
24682;DHT22;12802;53.390;-2.328;2023-07-13T12:14:16;19.50;99.90
24682;DHT22;12802;53.390;-2.328;2023-07-13T12:16:43;19.50;99.90
24682;DHT22;12802;53.390;-2.328;2023-07-13T12:19:21;19.70;99.90
24682;DHT22;12802;53.390;-2.328;2023-07-13T12:21:48;19.80;99.90
24682;DHT22;12802;53.390;-2.328;2023-07-13T12:24:19;20.00;99.90
24682;DHT22;12802;53.390;-2.328;2023-07-13T12:27:01;20.20;99.90
24682;DHT22;12802;53.390;-2.328;2023-07-13T12:29:28;20.20;99.90
24682;DHT22;12802;53.390;-2.328;2023-07-13T12:31:54;20.20;99.90
24682;DHT22;12802;53.390;-2.328;2023-07-13T12:34:23;20.10;99.90
24682;DHT22;12802;53.390;-2.328;2023-07-13T12:36:54;20.10;99.90
24682;DHT22;12802;53.390;-2.328;2023-07-13T12:39:22;20.00;99.90
24682;DHT22;12802;53.390;-2.328;2023-07-13T12:41:50;20.00;99.90
24682;DHT22;12802;53.390;-2.328;2023-07-13T12:44:19;20.00;99.90
24682;DHT22;12802;53.390;-2.328;2023-07-13T12:46:57;20.10;99.90
24682;DHT22;12802;53.390;-2.328;2023-07-13T12:49:29;20.20;99.90
24682;DHT22;12802;53.390;-2.328;2023-07-13T12:51:57;20.10;99.90
24682;DHT22;12802;53.390;-2.328;2023-07-13T12:54:24;20.00;99.90
24682;DHT22;12802;53.390;-2.328;2023-07-13T12:56:52;19.90;99.90
24682;DHT22;12802;53.390;-2.328;2023-07-13T12:59:21;19.90;99.90
24682;DHT22;12802;53.390;-2.328;2023-07-13T13:01:48;19.80;99.90
24682;DHT22;12802;53.390;-2.328;2023-07-13T13:04:15;19.90;99.90
24682;DHT22;12802;53.390;-2.328;2023-07-13T13:06:41;20.00;99.90
24682;DHT22;12802;53.390;-2.328;2023-07-13T13:09:15;20.10;99.90
24682;DHT22;12802;53.390;-2.328;2023-07-13T13:11:42;20.10;99.90
24682;DHT22;12802;53.390;-2.328;2023-07-13T13:14:08;20.00;99.90
24682;DHT22;12802;53.390;-2.328;2023-07-13T13:17:07;19.90;99.90
24682;DHT22;12802;53.390;-2.328;2023-07-13T13:19:28;19.80;99.90
24682;DHT22;12802;53.390;-2.328;2023-07-13T13:21:55;19.50;99.90
24682;DHT22;12802;53.390;-2.328;2023-07-13T13:24:24;19.40;99.90
24682;DHT22;12802;53.390;-2.328;2023-07-13T13:26:52;19.40;99.90
24682;DHT22;12802;53.390;-2.328;2023-07-13T13:29:23;19.40;99.90
24682;DHT22;12802;53.390;-2.328;2023-07-13T13:31:54;19.20;99.90
24682;DHT22;12802;53.390;-2.328;2023-07-13T13:34:21;19.00;99.90
24682;DHT22;12802;53.390;-2.328;2023-07-13T13:36:50;18.90;99.90
24682;DHT22;12802;53.390;-2.328;2023-07-13T13:39:44;18.90;99.90
24682;DHT22;12802;53.390;-2.328;2023-07-13T13:42:10;19.00;99.90
24682;DHT22;12802;53.390;-2.328;2023-07-13T13:44:36;19.00;99.90
24682;DHT22;12802;53.390;-2.328;2023-07-13T13:47:02;19.00;99.90
24682;DHT22;12802;53.390;-2.328;2023-07-13T13:49:29;18.90;99.90
24682;DHT22;12802;53.390;-2.328;2023-07-13T13:51:56;19.00;99.90
24682;DHT22;12802;53.390;-2.328;2023-07-13T13:54:23;19.00;99.90
24682;DHT22;12802;53.390;-2.328;2023-07-13T13:56:52;19.10;99.90
24682;DHT22;12802;53.390;-2.328;2023-07-13T13:59:18;19.10;99.90
24682;DHT22;12802;53.390;-2.328;2023-07-13T14:01:45;19.20;99.90
24682;DHT22;12802;53.390;-2.328;2023-07-13T14:04:20;19.30;99.90
24682;DHT22;12802;53.390;-2.328;2023-07-13T14:06:47;19.30;99.90
24682;DHT22;12802;53.390;-2.328;2023-07-13T14:09:15;19.30;99.90
24682;DHT22;12802;53.390;-2.328;2023-07-13T14:11:44;19.20;99.90
24682;DHT22;12802;53.390;-2.328;2023-07-13T14:14:29;19.30;99.90
24682;DHT22;12802;53.390;-2.328;2023-07-13T14:16:55;19.30;99.90
24682;DHT22;12802;53.390;-2.328;2023-07-13T14:19:22;19.50;99.90
24682;DHT22;12802;53.390;-2.328;2023-07-13T14:21:48;19.80;99.90
24682;DHT22;12802;53.390;-2.328;2023-07-13T14:24:15;19.90;99.90
24682;DHT22;12802;53.390;-2.328;2023-07-13T14:26:41;20.50;99.90
24682;DHT22;12802;53.390;-2.328;2023-07-13T14:29:16;21.20;99.90
24682;DHT22;12802;53.390;-2.328;2023-07-13T14:31:43;22.00;99.90
24682;DHT22;12802;53.390;-2.328;2023-07-13T14:34:12;22.30;99.90
24682;DHT22;12802;53.390;-2.328;2023-07-13T14:36:44;22.80;99.90
24682;DHT22;12802;53.390;-2.328;2023-07-13T14:39:17;22.50;99.90
24682;DHT22;12802;53.390;-2.328;2023-07-13T14:41:44;21.90;99.90
24682;DHT22;12802;53.390;-2.328;2023-07-13T14:44:15;21.50;99.90
24682;DHT22;12802;53.390;-2.328;2023-07-13T14:46:42;21.30;99.90
24682;DHT22;12802;53.390;-2.328;2023-07-13T14:49:23;21.20;99.90
24682;DHT22;12802;53.390;-2.328;2023-07-13T14:51:50;21.30;99.90
24682;DHT22;12802;53.390;-2.328;2023-07-13T14:54:15;21.80;99.90
24682;DHT22;12802;53.390;-2.328;2023-07-13T14:56:41;22.00;99.90
24682;DHT22;12802;53.390;-2.328;2023-07-13T14:59:07;22.00;99.90
24682;DHT22;12802;53.390;-2.328;2023-07-13T15:01:34;21.70;99.90
24682;DHT22;12802;53.390;-2.328;2023-07-13T15:04:02;21.60;99.90
24682;DHT22;12802;53.390;-2.328;2023-07-13T15:06:28;21.60;99.90
24682;DHT22;12802;53.390;-2.328;2023-07-13T15:08:54;22.00;99.90
24682;DHT22;12802;53.390;-2.328;2023-07-13T15:11:21;21.80;99.90
24682;DHT22;12802;53.390;-2.328;2023-07-13T15:13:47;22.00;99.90
24682;DHT22;12802;53.390;-2.328;2023-07-13T15:16:21;22.10;99.90
24682;DHT22;12802;53.390;-2.328;2023-07-13T15:18:47;22.40;99.90
24682;DHT22;12802;53.390;-2.328;2023-07-13T15:21:20;22.30;99.90
24682;DHT22;12802;53.390;-2.328;2023-07-13T15:23:47;22.60;99.90
24682;DHT22;12802;53.390;-2.328;2023-07-13T15:26:14;22.80;99.90
24682;DHT22;12802;53.390;-2.328;2023-07-13T15:28:44;22.50;99.90
24682;DHT22;12802;53.390;-2.328;2023-07-13T15:31:24;22.00;99.90
24682;DHT22;12802;53.390;-2.328;2023-07-13T15:33:51;21.90;99.90
24682;DHT22;12802;53.390;-2.328;2023-07-13T15:36:19;21.70;99.90
24682;DHT22;12802;53.390;-2.328;2023-07-13T15:38:46;21.50;99.90
24682;DHT22;12802;53.390;-2.328;2023-07-13T15:41:21;21.20;99.90
24682;DHT22;12802;53.390;-2.328;2023-07-13T15:43:54;21.10;99.90
24682;DHT22;12802;53.390;-2.328;2023-07-13T15:46:22;20.90;99.90
24682;DHT22;12802;53.390;-2.328;2023-07-13T15:48:49;20.70;99.90
24682;DHT22;12802;53.390;-2.328;2023-07-13T15:53:48;20.50;99.90
24682;DHT22;12802;53.390;-2.328;2023-07-13T15:56:21;20.40;99.90
24682;DHT22;12802;53.390;-2.328;2023-07-13T15:58:49;20.30;99.90
24682;DHT22;12802;53.390;-2.328;2023-07-13T16:01:15;20.20;99.90
24682;DHT22;12802;53.390;-2.328;2023-07-13T16:03:41;20.10;99.90
24682;DHT22;12802;53.390;-2.328;2023-07-13T16:06:29;20.20;99.90